Time;durP1;ratioP1;P1;durP2;ratioP2;P2;SDS_P1;SDS_P2;PMS_P1;PMS_P2;Temp;Humidity;BMP_temperature;BMP_pressure;BME280_temperature;BME280_humidity;BME280_pressure;Samples;Min_cycle;Max_cycle;Signal;HPM_P1;HPM_P2
2022/04/18 00:00:00;;;;;;;;;;;4.00;99.90;;;;;;5024909;28;19925;-73
2022/04/18 00:02:33;;;;;;;;;;;4.10;99.90;;;;;;5022684;28;19933;-73
2022/04/18 00:05:05;;;;;;;;;;;4.00;99.90;;;;;;5013217;28;19965;-73
2022/04/18 00:07:37;;;;;;;;;;;3.90;99.90;;;;;;5015088;28;19925;-73
2022/04/18 00:10:04;;;;;;;;;;;3.80;99.90;;;;;;5018171;28;19932;-73
2022/04/18 00:12:36;;;;;;;;;;;3.70;99.90;;;;;;5046153;23;20415;-72
2022/04/18 00:15:03;;;;;;;;;;;3.70;99.90;;;;;;5038681;28;19929;-72
2022/04/18 00:17:29;;;;;;;;;;;3.70;99.90;;;;;;5042368;28;19924;-73
2022/04/18 00:20:01;;;;;;;;;;;3.60;99.90;;;;;;5047522;28;19967;-72
2022/04/18 00:22:33;;;;;;;;;;;3.60;99.90;;;;;;5007621;28;19925;-71
2022/04/18 00:24:59;;;;;;;;;;;3.60;99.90;;;;;;5006448;28;19929;-72
2022/04/18 00:27:31;;;;;;;;;;;3.50;99.90;;;;;;5018922;28;19930;-70
2022/04/18 00:30:03;;;;;;;;;;;3.50;99.90;;;;;;5011007;28;19926;-72
2022/04/18 00:32:29;;;;;;;;;;;3.50;99.90;;;;;;5012244;28;19937;-72
2022/04/18 00:35:02;;;;;;;;;;;3.40;99.90;;;;;;5019057;28;19930;-72
2022/04/18 00:37:36;;;;;;;;;;;3.40;99.90;;;;;;5009013;28;20422;-72
2022/04/18 00:40:03;;;;;;;;;;;3.40;99.90;;;;;;5009322;28;20285;-72
2022/04/18 00:42:30;;;;;;;;;;;3.30;99.90;;;;;;5007968;28;20020;-72
2022/04/18 00:44:57;;;;;;;;;;;3.20;99.90;;;;;;5006978;28;20373;-72
2022/04/18 00:47:29;;;;;;;;;;;3.20;99.90;;;;;;5001087;28;20008;-72
2022/04/18 00:49:57;;;;;;;;;;;3.20;99.90;;;;;;4998665;28;20417;-72
2022/04/18 00:52:28;;;;;;;;;;;3.20;99.90;;;;;;5000055;28;20410;-72
2022/04/18 00:54:55;;;;;;;;;;;3.20;99.90;;;;;;5019862;28;19930;-71
2022/04/18 00:57:23;;;;;;;;;;;3.20;99.90;;;;;;5008994;28;19961;-72
2022/04/18 00:59:50;;;;;;;;;;;3.20;99.90;;;;;;5005765;28;20004;-71
2022/04/18 01:02:22;;;;;;;;;;;3.20;99.90;;;;;;4984341;28;19930;-72
2022/04/18 01:04:49;;;;;;;;;;;3.20;99.90;;;;;;4980713;28;19930;-72
2022/04/18 01:07:21;;;;;;;;;;;3.10;99.90;;;;;;5000282;28;19926;-72
2022/04/18 01:09:52;;;;;;;;;;;3.00;99.90;;;;;;5017867;28;20356;-71
2022/04/18 01:12:24;;;;;;;;;;;3.00;99.90;;;;;;4998207;28;20305;-73
2022/04/18 01:15:08;;;;;;;;;;;3.00;99.90;;;;;;5006745;28;19972;-71
2022/04/18 01:17:57;;;;;;;;;;;3.00;99.90;;;;;;4993875;28;20012;-72
2022/04/18 01:20:52;;;;;;;;;;;3.00;99.90;;;;;;4991882;28;19936;-72
2022/04/18 01:23:54;;;;;;;;;;;3.00;99.90;;;;;;5004726;28;19944;-71
2022/04/18 01:29:33;;;;;;;;;;;3.00;99.90;;;;;;5011754;28;19937;-72
2022/04/18 01:32:00;;;;;;;;;;;2.90;99.90;;;;;;4990195;28;19930;-71
2022/04/18 01:34:32;;;;;;;;;;;2.90;99.90;;;;;;5002829;28;19960;-71
2022/04/18 01:37:03;;;;;;;;;;;2.80;99.90;;;;;;5002492;28;19980;-72
2022/04/18 01:39:35;;;;;;;;;;;2.70;99.90;;;;;;5004159;28;19933;-72
2022/04/18 01:42:02;;;;;;;;;;;2.70;99.90;;;;;;4996084;28;19930;-71
2022/04/18 01:44:34;;;;;;;;;;;2.70;99.90;;;;;;5005475;28;20041;-72
2022/04/18 01:47:01;;;;;;;;;;;2.70;99.90;;;;;;5016320;28;19948;-71
2022/04/18 01:49:33;;;;;;;;;;;2.70;99.90;;;;;;5017239;28;20489;-72
2022/04/18 01:52:00;;;;;;;;;;;2.70;99.90;;;;;;4987514;28;19926;-72
2022/04/18 01:54:31;;;;;;;;;;;2.80;99.90;;;;;;5003421;28;20377;-71
2022/04/18 01:57:04;;;;;;;;;;;2.70;99.90;;;;;;4995155;28;19925;-72
2022/04/18 01:59:35;;;;;;;;;;;2.70;99.90;;;;;;4989360;28;19968;-72
2022/04/18 02:02:07;;;;;;;;;;;2.70;99.90;;;;;;5023183;28;19925;-71
2022/04/18 02:04:38;;;;;;;;;;;2.60;99.90;;;;;;5005485;28;20034;-73
2022/04/18 02:07:10;;;;;;;;;;;2.60;99.90;;;;;;5010688;28;20011;-71
2022/04/18 02:09:47;;;;;;;;;;;2.50;99.90;;;;;;5010999;28;19926;-72
2022/04/18 02:12:15;;;;;;;;;;;2.50;99.90;;;;;;5019043;28;19932;-71
2022/04/18 02:14:52;;;;;;;;;;;2.50;99.90;;;;;;5008420;28;19930;-71
2022/04/18 02:17:25;;;;;;;;;;;2.50;99.90;;;;;;5010287;28;19953;-72
2022/04/18 02:19:52;;;;;;;;;;;2.40;99.90;;;;;;5001436;28;19936;-72
2022/04/18 02:22:21;;;;;;;;;;;2.40;99.90;;;;;;5010664;28;19941;-70
2022/04/18 02:24:55;;;;;;;;;;;2.50;99.90;;;;;;5004464;28;19934;-72
2022/04/18 02:27:27;;;;;;;;;;;2.50;99.90;;;;;;5008910;28;19932;-72
2022/04/18 02:29:54;;;;;;;;;;;2.50;99.90;;;;;;5008428;28;19953;-71
2022/04/18 02:35:11;;;;;;;;;;;2.30;99.90;;;;;;5010196;28;20376;-72
2022/04/18 02:37:38;;;;;;;;;;;2.20;99.90;;;;;;5011189;28;20006;-72
2022/04/18 02:40:13;;;;;;;;;;;2.10;99.90;;;;;;5003819;28;20337;-72
2022/04/18 02:42:45;;;;;;;;;;;2.20;99.90;;;;;;5009313;28;19925;-71
2022/04/18 02:45:14;;;;;;;;;;;2.20;99.90;;;;;;5010036;28;19930;-71
2022/04/18 02:47:59;;;;;;;;;;;2.10;99.90;;;;;;5016558;28;19932;-71
2022/04/18 02:50:34;;;;;;;;;;;2.10;99.90;;;;;;5003108;28;20291;-71
2022/04/18 02:53:06;;;;;;;;;;;2.10;99.90;;;;;;5000695;28;19929;-71
2022/04/18 02:55:46;;;;;;;;;;;2.10;99.90;;;;;;4985774;28;20027;-71
2022/04/18 02:58:12;;;;;;;;;;;2.10;99.90;;;;;;4983410;28;19926;-72
2022/04/18 03:00:45;;;;;;;;;;;2.00;99.90;;;;;;5007960;28;20024;-72
2022/04/18 03:03:11;;;;;;;;;;;2.10;99.90;;;;;;4985636;28;19968;-72
2022/04/18 03:05:44;;;;;;;;;;;2.10;99.90;;;;;;4997801;28;19930;-71
2022/04/18 03:08:17;;;;;;;;;;;2.10;99.90;;;;;;5000874;28;20526;-71
2022/04/18 03:11:05;;;;;;;;;;;2.10;99.90;;;;;;4999501;28;19976;-70
2022/04/18 03:13:43;;;;;;;;;;;2.20;99.90;;;;;;4999161;28;19936;-72
2022/04/18 03:16:19;;;;;;;;;;;2.10;99.90;;;;;;5009796;28;19925;-72
2022/04/18 03:18:46;;;;;;;;;;;2.10;99.90;;;;;;4994284;28;19925;-70
2022/04/18 03:21:13;;;;;;;;;;;2.10;99.90;;;;;;5018734;28;20370;-72
2022/04/18 03:23:41;;;;;;;;;;;2.00;99.90;;;;;;4983375;28;19934;-72
2022/04/18 03:26:31;;;;;;;;;;;1.90;99.90;;;;;;4992524;28;20012;-71
2022/04/18 03:29:18;;;;;;;;;;;1.80;99.90;;;;;;5009490;28;19929;-72
2022/04/18 03:31:49;;;;;;;;;;;1.70;99.90;;;;;;4992037;28;19930;-72
2022/04/18 03:34:24;;;;;;;;;;;1.50;99.90;;;;;;5009268;28;19925;-72
2022/04/18 03:39:52;;;;;;;;;;;1.40;99.90;;;;;;5025964;28;19932;-72
2022/04/18 03:42:31;;;;;;;;;;;1.30;99.90;;;;;;5001871;28;20277;-72
2022/04/18 03:45:02;;;;;;;;;;;1.30;99.90;;;;;;5023405;28;20024;-72
2022/04/18 03:47:29;;;;;;;;;;;1.30;99.90;;;;;;5002774;28;19925;-72
2022/04/18 03:49:56;;;;;;;;;;;1.30;99.90;;;;;;5001988;28;19930;-71
2022/04/18 03:52:23;;;;;;;;;;;1.30;99.90;;;;;;4995950;28;19972;-71
2022/04/18 03:54:58;;;;;;;;;;;1.30;99.90;;;;;;5006237;28;19926;-71
2022/04/18 03:57:31;;;;;;;;;;;1.40;99.90;;;;;;5000825;28;19930;-71
2022/04/18 04:00:08;;;;;;;;;;;1.40;99.90;;;;;;5020188;28;19926;-72
2022/04/18 04:02:43;;;;;;;;;;;1.40;99.90;;;;;;4992803;28;19926;-72
2022/04/18 04:05:21;;;;;;;;;;;1.30;99.90;;;;;;4989258;28;19996;-71
2022/04/18 04:07:54;;;;;;;;;;;1.30;99.90;;;;;;5015735;28;20297;-72
2022/04/18 04:10:30;;;;;;;;;;;1.30;99.90;;;;;;5009624;28;19930;-72
2022/04/18 04:13:06;;;;;;;;;;;1.30;99.90;;;;;;4986712;28;19925;-71
2022/04/18 04:15:39;;;;;;;;;;;1.20;99.90;;;;;;5024024;28;19926;-72
2022/04/18 04:18:17;;;;;;;;;;;1.10;99.90;;;;;;4985146;28;19961;-72
2022/04/18 04:20:44;;;;;;;;;;;1.10;99.90;;;;;;5021471;28;20048;-70
2022/04/18 04:23:17;;;;;;;;;;;1.10;99.90;;;;;;4999906;28;20382;-71
2022/04/18 04:26:02;;;;;;;;;;;1.10;99.90;;;;;;5016492;28;19932;-70
2022/04/18 04:28:48;;;;;;;;;;;1.20;99.90;;;;;;5016410;28;19930;-71
2022/04/18 04:31:22;;;;;;;;;;;1.20;99.90;;;;;;5011188;28;19929;-72
2022/04/18 04:33:49;;;;;;;;;;;1.20;99.90;;;;;;4986115;28;19932;-70
2022/04/18 04:36:21;;;;;;;;;;;1.30;99.90;;;;;;5009708;28;19952;-72
2022/04/18 04:38:56;;;;;;;;;;;1.30;99.90;;;;;;5014030;28;19934;-71
2022/04/18 04:41:34;;;;;;;;;;;1.30;99.90;;;;;;5007232;28;19936;-71
2022/04/18 04:44:06;;;;;;;;;;;1.30;99.90;;;;;;4986569;28;19937;-71
2022/04/18 04:46:59;;;;;;;;;;;1.30;99.90;;;;;;5004894;28;19929;-71
2022/04/18 04:49:28;;;;;;;;;;;1.20;99.90;;;;;;5010419;28;19926;-71
2022/04/18 04:52:11;;;;;;;;;;;1.20;99.90;;;;;;5003213;28;19926;-69
2022/04/18 04:54:44;;;;;;;;;;;1.30;99.90;;;;;;4979607;28;19933;-71
2022/04/18 04:57:41;;;;;;;;;;;1.20;99.90;;;;;;5017506;28;19925;-72
2022/04/18 05:00:37;;;;;;;;;;;1.30;99.90;;;;;;4989230;28;19937;-72
2022/04/18 05:03:18;;;;;;;;;;;1.30;99.90;;;;;;5007377;28;19932;-71
2022/04/18 05:05:45;;;;;;;;;;;1.40;99.90;;;;;;5002553;28;19925;-72
2022/04/18 05:08:25;;;;;;;;;;;1.40;99.90;;;;;;4991977;28;20336;-71
2022/04/18 05:10:59;;;;;;;;;;;1.40;99.90;;;;;;4997566;28;20405;-72
2022/04/18 05:13:58;;;;;;;;;;;1.50;99.90;;;;;;4999874;28;19936;-72
2022/04/18 05:16:35;;;;;;;;;;;1.50;99.90;;;;;;5004385;28;19930;-72
2022/04/18 05:19:27;;;;;;;;;;;1.50;99.90;;;;;;5013106;28;19940;-72
2022/04/18 05:22:22;;;;;;;;;;;1.60;99.90;;;;;;4998650;28;20302;-71
2022/04/18 05:24:55;;;;;;;;;;;1.60;99.90;;;;;;5005173;28;19934;-72
2022/04/18 05:27:37;;;;;;;;;;;1.60;99.90;;;;;;5003917;28;20362;-71
2022/04/18 05:30:12;;;;;;;;;;;1.60;99.90;;;;;;4997391;28;20278;-71
2022/04/18 05:32:44;;;;;;;;;;;1.60;99.90;;;;;;5002278;28;19929;-71
2022/04/18 05:35:15;;;;;;;;;;;1.60;99.90;;;;;;5004320;28;19945;-71
2022/04/18 05:37:42;;;;;;;;;;;1.70;99.90;;;;;;4990152;28;20302;-71
2022/04/18 05:40:37;;;;;;;;;;;1.70;99.90;;;;;;4997807;28;19937;-71
2022/04/18 05:43:05;;;;;;;;;;;1.80;99.90;;;;;;5019256;28;19940;-71
2022/04/18 05:45:37;;;;;;;;;;;1.80;99.90;;;;;;4999736;28;19981;-71
2022/04/18 05:48:09;;;;;;;;;;;1.90;99.90;;;;;;5002659;28;19932;-71
2022/04/18 05:50:45;;;;;;;;;;;1.90;99.90;;;;;;5000488;28;19925;-71
2022/04/18 05:53:28;;;;;;;;;;;2.00;99.90;;;;;;5003495;28;19925;-71
2022/04/18 05:56:12;;;;;;;;;;;2.00;99.90;;;;;;5009267;28;19925;-71
2022/04/18 05:58:57;;;;;;;;;;;1.90;99.90;;;;;;4985422;28;20393;-71
2022/04/18 06:01:29;;;;;;;;;;;1.90;99.90;;;;;;5005332;28;19937;-70
2022/04/18 06:03:57;;;;;;;;;;;1.90;99.90;;;;;;5010153;28;19926;-71
2022/04/18 06:06:29;;;;;;;;;;;1.90;99.90;;;;;;5010775;28;19965;-71
2022/04/18 06:09:01;;;;;;;;;;;1.90;99.90;;;;;;5012826;28;19929;-71
2022/04/18 06:11:33;;;;;;;;;;;2.00;99.90;;;;;;5004829;28;19965;-71
2022/04/18 06:14:26;;;;;;;;;;;2.10;99.90;;;;;;4995487;28;20603;-71
2022/04/18 06:16:58;;;;;;;;;;;2.20;99.90;;;;;;5009216;28;19929;-71
2022/04/18 06:19:29;;;;;;;;;;;2.20;99.90;;;;;;5023108;28;20375;-71
2022/04/18 06:21:58;;;;;;;;;;;2.30;99.90;;;;;;4994974;28;19925;-71
2022/04/18 06:24:30;;;;;;;;;;;2.40;99.90;;;;;;5009790;28;19929;-71
2022/04/18 06:27:25;;;;;;;;;;;2.40;99.90;;;;;;5000989;28;19932;-71
2022/04/18 06:29:51;;;;;;;;;;;2.60;99.90;;;;;;5010612;28;20378;-70
2022/04/18 06:32:25;;;;;;;;;;;2.60;99.90;;;;;;5000236;28;20373;-70
2022/04/18 06:34:59;;;;;;;;;;;2.60;99.90;;;;;;5022221;28;20345;-71
2022/04/18 06:37:29;;;;;;;;;;;2.70;99.90;;;;;;4986487;28;19925;-71
2022/04/18 06:40:06;;;;;;;;;;;2.70;99.90;;;;;;5002719;28;19925;-71
2022/04/18 06:42:42;;;;;;;;;;;2.80;99.90;;;;;;5007088;28;19926;-71
2022/04/18 06:45:21;;;;;;;;;;;2.90;99.90;;;;;;5007171;28;19932;-70
2022/04/18 06:47:48;;;;;;;;;;;3.10;99.90;;;;;;5012446;28;19964;-71
2022/04/18 06:50:20;;;;;;;;;;;3.20;99.90;;;;;;5017246;28;19930;-71
2022/04/18 06:52:55;;;;;;;;;;;3.30;99.90;;;;;;5005686;28;19936;-71
2022/04/18 06:55:26;;;;;;;;;;;3.50;99.90;;;;;;5005382;28;19925;-71
2022/04/18 06:57:58;;;;;;;;;;;3.60;99.90;;;;;;5001525;28;19964;-71
2022/04/18 07:00:24;;;;;;;;;;;3.70;99.90;;;;;;5010398;28;19925;-71
2022/04/18 07:02:56;;;;;;;;;;;3.80;99.90;;;;;;5003859;28;19960;-71
2022/04/18 07:05:27;;;;;;;;;;;3.90;99.90;;;;;;5006933;28;19934;-72
2022/04/18 07:07:59;;;;;;;;;;;4.10;99.90;;;;;;5015112;28;19979;-72
2022/04/18 07:10:31;;;;;;;;;;;4.20;99.90;;;;;;5018663;28;19964;-72
2022/04/18 07:13:03;;;;;;;;;;;4.40;99.90;;;;;;5009678;28;19929;-72
2022/04/18 07:15:36;;;;;;;;;;;4.50;99.90;;;;;;5021783;28;19932;-72
2022/04/18 07:18:10;;;;;;;;;;;4.70;99.90;;;;;;4992916;28;19936;-72
2022/04/18 07:20:37;;;;;;;;;;;4.80;99.90;;;;;;5010021;28;20567;-71
2022/04/18 07:23:09;;;;;;;;;;;5.00;99.90;;;;;;4987063;28;19933;-72
2022/04/18 07:25:51;;;;;;;;;;;5.20;99.90;;;;;;5001305;28;19937;-71
2022/04/18 07:28:28;;;;;;;;;;;5.40;99.90;;;;;;4994894;28;19929;-71
2022/04/18 07:30:55;;;;;;;;;;;5.60;99.90;;;;;;4998332;28;19936;-72
2022/04/18 07:33:27;;;;;;;;;;;5.80;99.90;;;;;;5012994;28;19926;-72
2022/04/18 07:35:59;;;;;;;;;;;6.00;99.90;;;;;;5012262;28;19976;-72
2022/04/18 07:38:49;;;;;;;;;;;6.20;99.90;;;;;;4998893;28;19948;-72
2022/04/18 07:41:25;;;;;;;;;;;6.40;99.90;;;;;;5001001;28;19937;-72
2022/04/18 07:44:01;;;;;;;;;;;6.50;99.90;;;;;;5000214;28;19985;-72
2022/04/18 07:46:33;;;;;;;;;;;6.70;99.90;;;;;;4994360;28;19926;-72
2022/04/18 07:49:15;;;;;;;;;;;6.90;99.90;;;;;;5009769;28;19929;-71
2022/04/18 07:51:48;;;;;;;;;;;7.00;99.90;;;;;;4993577;28;19968;-72
2022/04/18 07:54:27;;;;;;;;;;;7.20;99.90;;;;;;4988115;28;19926;-72
2022/04/18 07:57:00;;;;;;;;;;;7.40;99.90;;;;;;4979754;28;19929;-75
2022/04/18 07:59:48;;;;;;;;;;;7.60;99.90;;;;;;4989933;28;19930;-72
2022/04/18 08:02:15;;;;;;;;;;;7.70;99.90;;;;;;4979736;28;20337;-72
2022/04/18 08:05:11;;;;;;;;;;;7.90;99.90;;;;;;4974808;28;20031;-72
2022/04/18 08:07:51;;;;;;;;;;;8.10;99.90;;;;;;5013000;28;19930;-72
2022/04/18 08:10:23;;;;;;;;;;;8.20;99.90;;;;;;4996617;28;20393;-71
2022/04/18 08:12:55;;;;;;;;;;;8.30;99.90;;;;;;5005128;28;20020;-72
2022/04/18 08:15:35;;;;;;;;;;;8.40;99.90;;;;;;4994173;28;19925;-72
2022/04/18 08:18:06;;;;;;;;;;;8.60;99.90;;;;;;5000742;28;19933;-72
2022/04/18 08:20:53;;;;;;;;;;;8.70;99.90;;;;;;5006409;28;19929;-71
2022/04/18 08:23:20;;;;;;;;;;;8.90;99.90;;;;;;5003741;28;19930;-71
2022/04/18 08:26:06;;;;;;;;;;;9.00;99.90;;;;;;5008988;28;19933;-72
2022/04/18 08:28:51;;;;;;;;;;;9.20;99.90;;;;;;4993927;28;19926;-72
2022/04/18 08:31:23;;;;;;;;;;;9.30;99.90;;;;;;5003015;28;19933;-72
2022/04/18 08:34:01;;;;;;;;;;;9.50;99.90;;;;;;5002756;28;19969;-72
2022/04/18 08:36:33;;;;;;;;;;;9.60;99.90;;;;;;4995085;28;19934;-71
2022/04/18 08:39:07;;;;;;;;;;;9.70;99.80;;;;;;4994542;28;20279;-72
2022/04/18 08:41:50;;;;;;;;;;;9.90;97.50;;;;;;5003542;28;20031;-71
2022/04/18 08:44:25;;;;;;;;;;;10.00;96.70;;;;;;4997943;28;20338;-72
2022/04/18 08:46:52;;;;;;;;;;;10.10;94.70;;;;;;5020407;28;19960;-72
2022/04/18 08:55:19;;;;;;;;;;;10.40;90.00;;;;;;5020918;28;20457;-72
2022/04/18 08:57:46;;;;;;;;;;;10.50;89.50;;;;;;5007372;28;19925;-72
2022/04/18 09:00:18;;;;;;;;;;;10.60;87.60;;;;;;5003017;28;20020;-72
2022/04/18 09:02:59;;;;;;;;;;;10.70;87.60;;;;;;5007537;28;19929;-72
2022/04/18 09:05:41;;;;;;;;;;;10.80;86.90;;;;;;5024434;28;19995;-72
2022/04/18 09:08:13;;;;;;;;;;;10.90;85.60;;;;;;5010119;28;19930;-72
2022/04/18 09:10:40;;;;;;;;;;;11.00;85.50;;;;;;5021735;28;20290;-72
2022/04/18 09:13:13;;;;;;;;;;;11.10;81.00;;;;;;4994529;28;19956;-72
2022/04/18 09:15:49;;;;;;;;;;;11.20;79.30;;;;;;5006712;28;19979;-71
2022/04/18 09:18:24;;;;;;;;;;;11.30;78.40;;;;;;5011242;28;19925;-72
2022/04/18 09:20:55;;;;;;;;;;;11.40;78.60;;;;;;4987438;28;20393;-72
2022/04/18 09:23:33;;;;;;;;;;;11.50;76.20;;;;;;5012198;28;19930;-72
2022/04/18 09:26:21;;;;;;;;;;;11.50;74.80;;;;;;5008917;28;19933;-72
2022/04/18 09:29:02;;;;;;;;;;;11.70;74.80;;;;;;4997916;28;19934;-72
2022/04/18 09:31:38;;;;;;;;;;;11.80;74.20;;;;;;5007192;28;19988;-72
2022/04/18 09:34:07;;;;;;;;;;;11.90;75.30;;;;;;4998316;28;19926;-72
2022/04/18 09:36:38;;;;;;;;;;;12.00;72.10;;;;;;5012206;28;20403;-69
2022/04/18 09:39:10;;;;;;;;;;;12.10;72.60;;;;;;5007500;28;19925;-70
2022/04/18 09:42:08;;;;;;;;;;;12.00;70.60;;;;;;5009531;28;20052;-69
2022/04/18 09:44:58;;;;;;;;;;;12.10;73.00;;;;;;5007480;28;19980;-69
2022/04/18 09:47:35;;;;;;;;;;;12.30;70.80;;;;;;5005384;28;19988;-72
2022/04/18 09:53:26;;;;;;;;;;;12.50;71.10;;;;;;5000837;28;19931;-70
2022/04/18 09:55:58;;;;;;;;;;;12.60;70.00;;;;;;5004959;28;19936;-70
2022/04/18 09:58:31;;;;;;;;;;;12.70;69.10;;;;;;5003629;28;19933;-69
2022/04/18 10:01:04;;;;;;;;;;;12.80;69.20;;;;;;5003353;28;19941;-70
2022/04/18 10:03:36;;;;;;;;;;;12.90;68.60;;;;;;5003462;28;19929;-70
2022/04/18 10:06:08;;;;;;;;;;;13.00;66.80;;;;;;5005233;28;20489;-69
2022/04/18 10:08:40;;;;;;;;;;;13.10;67.90;;;;;;5018472;28;19949;-70
2022/04/18 10:11:11;;;;;;;;;;;13.20;65.20;;;;;;5003779;28;20293;-70
2022/04/18 10:13:43;;;;;;;;;;;13.30;64.50;;;;;;5009345;28;19925;-70
2022/04/18 10:16:15;;;;;;;;;;;13.30;66.70;;;;;;5001412;28;20044;-70
2022/04/18 10:18:50;;;;;;;;;;;13.40;64.90;;;;;;5002710;28;19933;-70
2022/04/18 10:21:25;;;;;;;;;;;13.40;63.30;;;;;;4988881;28;19929;-70
2022/04/18 10:24:25;;;;;;;;;;;13.40;62.60;;;;;;5004799;28;19936;-70
2022/04/18 10:27:11;;;;;;;;;;;13.50;63.30;;;;;;5005897;28;19952;-70
2022/04/18 10:29:50;;;;;;;;;;;13.60;63.10;;;;;;5005355;28;20321;-70
2022/04/18 10:32:21;;;;;;;;;;;13.60;62.90;;;;;;5001173;28;19953;-70
2022/04/18 10:34:56;;;;;;;;;;;13.60;60.40;;;;;;5006061;28;19933;-70
2022/04/18 10:37:28;;;;;;;;;;;13.60;63.30;;;;;;5009535;28;20024;-72
2022/04/18 10:40:02;;;;;;;;;;;13.70;60.60;;;;;;5002823;28;19932;-70
2022/04/18 10:42:35;;;;;;;;;;;13.80;60.40;;;;;;5004709;28;19933;-70
2022/04/18 10:45:07;;;;;;;;;;;13.90;59.40;;;;;;5006073;28;19925;-69
2022/04/18 10:47:58;;;;;;;;;;;13.80;60.20;;;;;;5003198;28;19926;-70
2022/04/18 10:50:33;;;;;;;;;;;13.90;61.40;;;;;;5008744;28;19925;-70
2022/04/18 10:53:13;;;;;;;;;;;14.10;62.50;;;;;;5002425;28;20008;-70
2022/04/18 10:56:06;;;;;;;;;;;14.20;58.40;;;;;;4999637;28;20406;-70
2022/04/18 10:58:40;;;;;;;;;;;14.20;58.60;;;;;;5007326;28;19952;-70
2022/04/18 11:01:12;;;;;;;;;;;14.20;58.60;;;;;;5016068;28;19925;-70
2022/04/18 11:03:43;;;;;;;;;;;14.30;57.90;;;;;;5003371;28;19926;-70
2022/04/18 11:06:32;;;;;;;;;;;14.30;57.70;;;;;;5010312;28;19972;-70
2022/04/18 11:09:09;;;;;;;;;;;14.40;59.00;;;;;;4999883;28;20302;-70
2022/04/18 11:11:39;;;;;;;;;;;14.50;57.50;;;;;;4997683;28;20024;-69
2022/04/18 11:14:23;;;;;;;;;;;14.50;58.10;;;;;;5021194;28;19929;-70
2022/04/18 11:16:56;;;;;;;;;;;14.50;60.20;;;;;;4998787;28;20012;-70
2022/04/18 11:19:24;;;;;;;;;;;14.50;58.90;;;;;;4995734;28;19926;-70
2022/04/18 11:22:00;;;;;;;;;;;14.60;58.10;;;;;;5005624;28;19929;-70
2022/04/18 11:24:46;;;;;;;;;;;14.70;58.10;;;;;;5008524;28;19926;-72
2022/04/18 11:27:22;;;;;;;;;;;14.80;57.60;;;;;;5003959;28;20024;-72
2022/04/18 11:30:00;;;;;;;;;;;15.00;59.30;;;;;;4994933;28;20291;-72
2022/04/18 11:32:33;;;;;;;;;;;15.10;57.00;;;;;;5002776;28;19925;-72
2022/04/18 11:35:01;;;;;;;;;;;15.10;58.60;;;;;;5003991;28;19929;-72
2022/04/18 11:37:28;;;;;;;;;;;15.10;55.90;;;;;;5003431;28;19929;-71
2022/04/18 11:40:04;;;;;;;;;;;15.00;56.00;;;;;;5000975;28;19973;-71
2022/04/18 11:42:37;;;;;;;;;;;15.00;56.10;;;;;;5001874;28;19926;-71
2022/04/18 11:45:23;;;;;;;;;;;15.00;55.50;;;;;;5003623;28;20073;-71
2022/04/18 11:47:54;;;;;;;;;;;15.10;54.40;;;;;;5015863;28;19932;-72
2022/04/18 11:50:26;;;;;;;;;;;15.10;54.70;;;;;;5001062;28;19926;-72
2022/04/18 11:53:02;;;;;;;;;;;15.00;54.80;;;;;;4999545;28;19933;-72
2022/04/18 11:55:43;;;;;;;;;;;15.00;55.20;;;;;;5004528;28;20270;-71
2022/04/18 11:58:21;;;;;;;;;;;15.10;55.80;;;;;;4999515;28;20036;-72
2022/04/18 12:06:49;;;;;;;;;;;15.30;55.40;;;;;;4997123;28;19945;-72
2022/04/18 12:09:21;;;;;;;;;;;15.40;55.90;;;;;;4998393;28;20375;-71
2022/04/18 12:11:54;;;;;;;;;;;15.60;54.70;;;;;;5013091;28;19932;-72
2022/04/18 12:14:29;;;;;;;;;;;15.50;55.30;;;;;;5005576;28;20341;-72
2022/04/18 12:17:01;;;;;;;;;;;15.40;55.10;;;;;;5007106;28;20267;-71
2022/04/18 12:19:33;;;;;;;;;;;15.30;54.60;;;;;;5006101;28;20469;-72
2022/04/18 12:22:05;;;;;;;;;;;15.40;56.10;;;;;;5004820;28;19932;-72
2022/04/18 12:24:38;;;;;;;;;;;15.40;55.60;;;;;;5004165;28;19944;-72
2022/04/18 12:27:10;;;;;;;;;;;15.50;54.60;;;;;;5002566;28;20398;-72
2022/04/18 12:29:45;;;;;;;;;;;15.60;55.30;;;;;;4996448;28;19929;-73
2022/04/18 12:32:24;;;;;;;;;;;15.60;54.90;;;;;;4995585;28;19925;-72
2022/04/18 12:34:55;;;;;;;;;;;15.70;56.50;;;;;;4998992;28;19937;-72
2022/04/18 12:37:27;;;;;;;;;;;15.80;56.30;;;;;;5014149;28;20287;-72
2022/04/18 12:40:08;;;;;;;;;;;15.80;54.70;;;;;;4995371;28;20625;-72
2022/04/18 12:42:40;;;;;;;;;;;15.90;53.80;;;;;;4996547;28;20081;-72
2022/04/18 12:45:12;;;;;;;;;;;16.00;54.60;;;;;;5006672;28;19925;-73
2022/04/18 12:47:43;;;;;;;;;;;16.10;55.10;;;;;;4986122;28;20294;-72
2022/04/18 12:50:15;;;;;;;;;;;16.20;53.70;;;;;;5007178;28;20326;-72
2022/04/18 12:52:49;;;;;;;;;;;16.10;53.00;;;;;;5000637;28;20457;-72
2022/04/18 12:55:24;;;;;;;;;;;16.10;52.80;;;;;;4999168;28;19926;-72
2022/04/18 12:57:51;;;;;;;;;;;16.10;52.40;;;;;;5001134;28;20461;-73
2022/04/18 13:00:23;;;;;;;;;;;16.00;52.00;;;;;;5001163;28;19937;-72
2022/04/18 13:02:55;;;;;;;;;;;16.00;55.00;;;;;;4997500;28;20408;-72
2022/04/18 13:05:32;;;;;;;;;;;16.10;53.90;;;;;;4999976;28;20386;-72
2022/04/18 13:08:05;;;;;;;;;;;16.10;52.80;;;;;;4998279;28;19930;-73
2022/04/18 13:10:37;;;;;;;;;;;16.20;51.90;;;;;;5003122;28;20732;-73
2022/04/18 13:13:13;;;;;;;;;;;16.20;52.80;;;;;;5007732;28;20318;-72
2022/04/18 13:15:46;;;;;;;;;;;16.20;52.20;;;;;;5000334;28;19926;-73
2022/04/18 13:18:21;;;;;;;;;;;16.30;52.20;;;;;;5008576;28;20031;-72
2022/04/18 13:20:47;;;;;;;;;;;16.20;51.70;;;;;;5001846;28;19930;-73
2022/04/18 13:23:19;;;;;;;;;;;16.20;52.10;;;;;;5003661;28;19936;-73
2022/04/18 13:25:50;;;;;;;;;;;16.20;53.20;;;;;;4998631;28;20542;-72
2022/04/18 13:28:18;;;;;;;;;;;16.40;53.50;;;;;;5012975;28;20064;-73
2022/04/18 13:30:49;;;;;;;;;;;16.50;51.20;;;;;;4998255;28;19936;-73
2022/04/18 13:33:21;;;;;;;;;;;16.70;51.30;;;;;;5001397;28;20425;-73
2022/04/18 13:38:43;;;;;;;;;;;16.70;50.70;;;;;;5014966;28;19926;-72
2022/04/18 13:41:15;;;;;;;;;;;16.70;51.60;;;;;;4990207;28;20294;-72
2022/04/18 13:43:46;;;;;;;;;;;16.60;50.00;;;;;;4990613;28;19937;-72
2022/04/18 13:46:18;;;;;;;;;;;16.70;51.30;;;;;;4990905;28;20151;-72
2022/04/18 13:48:50;;;;;;;;;;;16.90;52.80;;;;;;4999586;28;19933;-72
2022/04/18 13:51:24;;;;;;;;;;;17.00;50.20;;;;;;5000348;28;19926;-72
2022/04/18 13:53:58;;;;;;;;;;;17.10;50.00;;;;;;4996981;28;19930;-73
2022/04/18 13:56:30;;;;;;;;;;;17.00;50.10;;;;;;5005543;28;19930;-72
2022/04/18 13:58:57;;;;;;;;;;;17.10;50.10;;;;;;5008653;28;19926;-73
2022/04/18 14:01:29;;;;;;;;;;;17.30;49.90;;;;;;5006474;28;19936;-72
2022/04/18 14:04:00;;;;;;;;;;;17.40;50.60;;;;;;5010568;28;19925;-73
2022/04/18 14:06:32;;;;;;;;;;;17.50;50.90;;;;;;5002668;28;20002;-73
2022/04/18 14:09:04;;;;;;;;;;;17.70;48.50;;;;;;5002666;28;19933;-73
2022/04/18 14:11:35;;;;;;;;;;;17.80;49.60;;;;;;5005792;28;20301;-72
2022/04/18 14:14:07;;;;;;;;;;;18.00;48.10;;;;;;5001962;28;19929;-73
2022/04/18 14:22:19;;;;;;;;;;;17.70;48.10;;;;;;5008402;28;19997;-72
2022/04/18 14:24:51;;;;;;;;;;;17.60;46.80;;;;;;5003652;28;19940;-72
2022/04/18 14:27:22;;;;;;;;;;;17.60;47.20;;;;;;5010771;28;20693;-73
2022/04/18 14:29:55;;;;;;;;;;;17.70;47.20;;;;;;5003068;28;19934;-73
2022/04/18 14:32:22;;;;;;;;;;;18.10;47.70;;;;;;5005964;28;20333;-73
2022/04/18 14:34:53;;;;;;;;;;;18.40;46.80;;;;;;5010667;28;19936;-73
2022/04/18 14:37:25;;;;;;;;;;;18.60;45.80;;;;;;4993874;28;19933;-73
2022/04/18 14:39:57;;;;;;;;;;;18.70;45.80;;;;;;4993647;28;20398;-73
2022/04/18 14:42:28;;;;;;;;;;;18.90;47.30;;;;;;4993682;28;20378;-74
2022/04/18 14:45:00;;;;;;;;;;;19.10;45.40;;;;;;5003491;28;19932;-73
2022/04/18 14:47:32;;;;;;;;;;;19.40;45.80;;;;;;5003026;28;19929;-72
2022/04/18 14:50:04;;;;;;;;;;;19.20;45.40;;;;;;5009995;28;19933;-72
2022/04/18 14:52:30;;;;;;;;;;;19.40;44.80;;;;;;4992882;28;19926;-73
2022/04/18 14:55:02;;;;;;;;;;;19.60;44.90;;;;;;5007713;28;19926;-73
2022/04/18 14:57:34;;;;;;;;;;;20.00;43.60;;;;;;5005876;28;19980;-72
2022/04/18 15:00:07;;;;;;;;;;;20.10;43.90;;;;;;5004347;28;20587;-73
2022/04/18 15:02:34;;;;;;;;;;;20.10;44.10;;;;;;5003159;28;19929;-72
2022/04/18 15:05:05;;;;;;;;;;;20.30;43.50;;;;;;5001730;28;19933;-72
2022/04/18 15:07:38;;;;;;;;;;;20.60;42.20;;;;;;5008341;28;20385;-73
2022/04/18 15:10:10;;;;;;;;;;;20.50;42.00;;;;;;5014834;28;19937;-73
2022/04/18 15:12:42;;;;;;;;;;;20.70;42.30;;;;;;4995163;28;19930;-72
2022/04/18 15:15:13;;;;;;;;;;;20.80;42.60;;;;;;5000920;28;19933;-72
2022/04/18 15:17:40;;;;;;;;;;;20.90;41.80;;;;;;4996811;28;19925;-73
2022/04/18 15:20:07;;;;;;;;;;;20.90;41.40;;;;;;4996853;28;19945;-73
2022/04/18 15:22:39;;;;;;;;;;;21.10;41.00;;;;;;5004152;28;20377;-73
2022/04/18 15:25:11;;;;;;;;;;;21.40;41.60;;;;;;4986238;28;20301;-73
2022/04/18 15:27:43;;;;;;;;;;;22.00;41.90;;;;;;5002779;28;20317;-73
2022/04/18 15:32:55;;;;;;;;;;;22.70;38.10;;;;;;5004288;28;19926;-73
2022/04/18 15:35:26;;;;;;;;;;;22.90;37.70;;;;;;5019833;28;19929;-72
2022/04/18 15:37:58;;;;;;;;;;;22.50;37.70;;;;;;5010307;28;19925;-72